sensor_id;sensor_type;location;lat;lon;timestamp;pressure;altitude;pressure_sealevel;temperature;humidity
21109;BME280;10712;52.944;9.098;2023-12-28T00:01:22;100578.19;;;16.38;65.34
21109;BME280;10712;52.944;9.098;2023-12-28T00:03:49;100580.41;;;16.33;65.43
21109;BME280;10712;52.944;9.098;2023-12-28T00:06:16;100576.47;;;16.37;65.71
21109;BME280;10712;52.944;9.098;2023-12-28T00:08:41;100581.66;;;16.29;66.79
21109;BME280;10712;52.944;9.098;2023-12-28T00:11:08;100572.84;;;16.27;66.96
21109;BME280;10712;52.944;9.098;2023-12-28T00:13:33;100570.56;;;16.43;67.52
21109;BME280;10712;52.944;9.098;2023-12-28T00:15:59;100580.91;;;16.27;68.15
21109;BME280;10712;52.944;9.098;2023-12-28T00:18:25;100588.53;;;16.22;68.99
21109;BME280;10712;52.944;9.098;2023-12-28T00:20:52;100598.25;;;16.34;68.83
21109;BME280;10712;52.944;9.098;2023-12-28T00:23:18;100595.81;;;16.31;69.03
21109;BME280;10712;52.944;9.098;2023-12-28T00:25:46;100582.56;;;16.39;69.09
21109;BME280;10712;52.944;9.098;2023-12-28T00:28:12;100570.38;;;16.35;69.19
21109;BME280;10712;52.944;9.098;2023-12-28T00:30:38;100564.75;;;16.38;69.18
21109;BME280;10712;52.944;9.098;2023-12-28T00:33:04;100583.81;;;16.35;69.15
21109;BME280;10712;52.944;9.098;2023-12-28T00:35:32;100588.00;;;16.28;69.36
21109;BME280;10712;52.944;9.098;2023-12-28T00:37:58;100582.53;;;16.19;69.68
21109;BME280;10712;52.944;9.098;2023-12-28T00:40:24;100589.97;;;16.26;69.62
21109;BME280;10712;52.944;9.098;2023-12-28T00:42:49;100587.25;;;16.37;69.56
21109;BME280;10712;52.944;9.098;2023-12-28T00:45:15;100566.84;;;16.35;69.66
21109;BME280;10712;52.944;9.098;2023-12-28T00:47:41;100573.84;;;16.26;69.90
21109;BME280;10712;52.944;9.098;2023-12-28T00:50:09;100573.63;;;16.39;69.90
21109;BME280;10712;52.944;9.098;2023-12-28T00:52:41;100569.91;;;16.30;70.06
21109;BME280;10712;52.944;9.098;2023-12-28T00:55:07;100573.06;;;16.35;69.90
21109;BME280;10712;52.944;9.098;2023-12-28T00:57:34;100591.56;;;16.29;70.38
21109;BME280;10712;52.944;9.098;2023-12-28T01:00:00;100586.63;;;16.34;70.36
21109;BME280;10712;52.944;9.098;2023-12-28T01:02:27;100598.25;;;16.34;70.50
21109;BME280;10712;52.944;9.098;2023-12-28T01:04:53;100603.38;;;16.37;70.48
21109;BME280;10712;52.944;9.098;2023-12-28T01:07:19;100601.06;;;16.33;70.48
21109;BME280;10712;52.944;9.098;2023-12-28T01:09:45;100593.47;;;16.38;70.41
21109;BME280;10712;52.944;9.098;2023-12-28T01:12:11;100594.13;;;16.30;70.53
21109;BME280;10712;52.944;9.098;2023-12-28T01:14:37;100592.09;;;16.43;70.24
21109;BME280;10712;52.944;9.098;2023-12-28T01:17:03;100619.94;;;16.22;70.84
21109;BME280;10712;52.944;9.098;2023-12-28T01:19:29;100620.72;;;16.33;70.52
21109;BME280;10712;52.944;9.098;2023-12-28T01:21:54;100624.25;;;16.34;70.46
21109;BME280;10712;52.944;9.098;2023-12-28T01:24:20;100624.22;;;16.24;70.64
21109;BME280;10712;52.944;9.098;2023-12-28T01:26:46;100637.66;;;16.24;70.77
21109;BME280;10712;52.944;9.098;2023-12-28T01:29:12;100635.53;;;16.28;70.61
21109;BME280;10712;52.944;9.098;2023-12-28T01:31:38;100645.19;;;16.30;70.62
21109;BME280;10712;52.944;9.098;2023-12-28T01:34:05;100637.75;;;16.23;70.81
21109;BME280;10712;52.944;9.098;2023-12-28T01:36:32;100651.50;;;16.40;70.56
21109;BME280;10712;52.944;9.098;2023-12-28T01:38:59;100657.66;;;16.31;70.80
21109;BME280;10712;52.944;9.098;2023-12-28T01:41:25;100647.25;;;16.38;70.59
21109;BME280;10712;52.944;9.098;2023-12-28T01:43:52;100675.81;;;16.39;70.51
21109;BME280;10712;52.944;9.098;2023-12-28T01:46:20;100668.47;;;16.41;70.27
21109;BME280;10712;52.944;9.098;2023-12-28T01:48:49;100676.88;;;16.47;70.57
21109;BME280;10712;52.944;9.098;2023-12-28T01:51:16;100694.72;;;16.48;70.72
21109;BME280;10712;52.944;9.098;2023-12-28T01:53:45;100695.13;;;16.44;70.75
21109;BME280;10712;52.944;9.098;2023-12-28T01:56:11;100695.97;;;16.44;70.78
21109;BME280;10712;52.944;9.098;2023-12-28T01:58:40;100709.88;;;16.49;70.65
21109;BME280;10712;52.944;9.098;2023-12-28T02:01:07;100708.63;;;16.53;70.58
21109;BME280;10712;52.944;9.098;2023-12-28T02:03:33;100710.97;;;16.47;70.91
21109;BME280;10712;52.944;9.098;2023-12-28T02:06:00;100706.47;;;16.47;70.76
21109;BME280;10712;52.944;9.098;2023-12-28T02:08:28;100704.50;;;16.49;70.68
21109;BME280;10712;52.944;9.098;2023-12-28T02:10:53;100702.47;;;16.42;70.97
21109;BME280;10712;52.944;9.098;2023-12-28T02:13:21;100715.78;;;16.43;70.83
21109;BME280;10712;52.944;9.098;2023-12-28T02:16:30;100702.63;;;16.29;71.36
21109;BME280;10712;52.944;9.098;2023-12-28T02:19:04;100701.16;;;16.25;71.25
21109;BME280;10712;52.944;9.098;2023-12-28T02:21:37;100701.16;;;16.25;71.33
21109;BME280;10712;52.944;9.098;2023-12-28T02:24:03;100701.16;;;16.25;71.43
21109;BME280;10712;52.944;9.098;2023-12-28T02:26:29;100704.34;;;16.30;71.43
21109;BME280;10712;52.944;9.098;2023-12-28T02:28:55;100710.22;;;16.24;71.51
21109;BME280;10712;52.944;9.098;2023-12-28T02:31:37;100709.09;;;16.27;71.56
21109;BME280;10712;52.944;9.098;2023-12-28T02:34:16;100705.94;;;16.22;71.58
21109;BME280;10712;52.944;9.098;2023-12-28T02:36:47;100704.00;;;16.24;71.60
21109;BME280;10712;52.944;9.098;2023-12-28T02:39:16;100711.91;;;16.25;71.61
21109;BME280;10712;52.944;9.098;2023-12-28T02:41:44;100713.88;;;16.23;71.71
21109;BME280;10712;52.944;9.098;2023-12-28T02:44:10;100710.47;;;16.21;71.71
21109;BME280;10712;52.944;9.098;2023-12-28T02:46:36;100711.91;;;16.25;71.75
21109;BME280;10712;52.944;9.098;2023-12-28T02:49:04;100701.88;;;16.27;71.59
21109;BME280;10712;52.944;9.098;2023-12-28T02:51:32;100696.28;;;16.19;71.70
21109;BME280;10712;52.944;9.098;2023-12-28T02:53:58;100695.19;;;16.22;71.77
21109;BME280;10712;52.944;9.098;2023-12-28T02:56:24;100699.94;;;16.18;71.71
21109;BME280;10712;52.944;9.098;2023-12-28T02:58:49;100694.56;;;16.18;71.82
21109;BME280;10712;52.944;9.098;2023-12-28T03:01:15;100698.00;;;16.20;71.75
21109;BME280;10712;52.944;9.098;2023-12-28T03:03:42;100692.97;;;16.27;71.72
21109;BME280;10712;52.944;9.098;2023-12-28T03:06:08;100700.44;;;16.23;71.80
21109;BME280;10712;52.944;9.098;2023-12-28T03:08:34;100698.00;;;16.20;71.90
21109;BME280;10712;52.944;9.098;2023-12-28T03:10:59;100702.00;;;16.26;71.84
21109;BME280;10712;52.944;9.098;2023-12-28T03:13:25;100697.50;;;16.26;71.79
21109;BME280;10712;52.944;9.098;2023-12-28T03:15:51;100695.78;;;16.25;71.80
21109;BME280;10712;52.944;9.098;2023-12-28T03:18:17;100698.97;;;16.30;71.80
21109;BME280;10712;52.944;9.098;2023-12-28T03:20:43;100691.59;;;16.32;71.57
21109;BME280;10712;52.944;9.098;2023-12-28T03:23:11;100676.81;;;16.38;71.45
21109;BME280;10712;52.944;9.098;2023-12-28T03:25:37;100694.50;;;16.40;71.40
21109;BME280;10712;52.944;9.098;2023-12-28T03:28:03;100695.72;;;16.47;71.27
21109;BME280;10712;52.944;9.098;2023-12-28T03:30:29;100684.94;;;16.47;71.39
21109;BME280;10712;52.944;9.098;2023-12-28T03:32:54;100686.41;;;16.51;71.38
21109;BME280;10712;52.944;9.098;2023-12-28T03:35:20;100691.03;;;16.61;71.15
21109;BME280;10712;52.944;9.098;2023-12-28T03:37:46;100687.41;;;16.50;71.27
21109;BME280;10712;52.944;9.098;2023-12-28T03:40:12;100690.91;;;16.62;70.82
21109;BME280;10712;52.944;9.098;2023-12-28T03:42:39;100687.38;;;16.62;70.99
21109;BME280;10712;52.944;9.098;2023-12-28T03:45:05;100668.75;;;16.70;70.75
21109;BME280;10712;52.944;9.098;2023-12-28T03:47:32;100668.16;;;16.66;70.83
21109;BME280;10712;52.944;9.098;2023-12-28T03:49:58;100672.09;;;16.62;70.91
21109;BME280;10712;52.944;9.098;2023-12-28T03:52:26;100674.03;;;16.60;70.99
21109;BME280;10712;52.944;9.098;2023-12-28T03:54:52;100674.38;;;16.67;70.82
21109;BME280;10712;52.944;9.098;2023-12-28T03:57:18;100674.13;;;16.70;70.88
21109;BME280;10712;52.944;9.098;2023-12-28T03:59:44;100667.19;;;16.56;71.14
21109;BME280;10712;52.944;9.098;2023-12-28T04:02:10;100672.22;;;16.61;71.05
21109;BME280;10712;52.944;9.098;2023-12-28T04:04:36;100668.06;;;16.57;71.19
21109;BME280;10712;52.944;9.098;2023-12-28T04:07:01;100675.16;;;16.58;71.35
21109;BME280;10712;52.944;9.098;2023-12-28T04:09:27;100673.31;;;16.58;71.50
21109;BME280;10712;52.944;9.098;2023-12-28T04:11:53;100669.28;;;16.64;71.29
21109;BME280;10712;52.944;9.098;2023-12-28T04:14:19;100659.25;;;16.54;71.41
21109;BME280;10712;52.944;9.098;2023-12-28T04:16:45;100654.59;;;16.57;71.48
21109;BME280;10712;52.944;9.098;2023-12-28T04:19:11;100659.50;;;16.63;71.26
21109;BME280;10712;52.944;9.098;2023-12-28T04:21:37;100661.56;;;16.59;71.48
21109;BME280;10712;52.944;9.098;2023-12-28T04:24:03;100652.47;;;16.71;71.25
21109;BME280;10712;52.944;9.098;2023-12-28T04:26:29;100656.28;;;16.69;71.40
21109;BME280;10712;52.944;9.098;2023-12-28T04:28:56;100653.00;;;16.86;70.99
21109;BME280;10712;52.944;9.098;2023-12-28T04:31:22;100652.06;;;16.76;71.21
21109;BME280;10712;52.944;9.098;2023-12-28T04:33:47;100652.84;;;16.67;71.44
21109;BME280;10712;52.944;9.098;2023-12-28T04:36:13;100655.81;;;16.64;71.45
21109;BME280;10712;52.944;9.098;2023-12-28T04:38:39;100660.72;;;16.59;71.52
21109;BME280;10712;52.944;9.098;2023-12-28T04:41:05;100664.13;;;16.61;71.51
21109;BME280;10712;52.944;9.098;2023-12-28T04:43:31;100671.47;;;16.59;71.53
21109;BME280;10712;52.944;9.098;2023-12-28T04:45:56;100682.44;;;16.67;71.60
21109;BME280;10712;52.944;9.098;2023-12-28T04:48:22;100679.25;;;16.73;71.28
21109;BME280;10712;52.944;9.098;2023-12-28T04:50:51;100674.38;;;16.67;71.48
21109;BME280;10712;52.944;9.098;2023-12-28T04:53:18;100667.31;;;16.66;71.51
21109;BME280;10712;52.944;9.098;2023-12-28T04:55:43;100660.72;;;16.59;71.69
21109;BME280;10712;52.944;9.098;2023-12-28T04:58:10;100659.94;;;16.68;71.69
21109;BME280;10712;52.944;9.098;2023-12-28T05:00:38;100658.00;;;16.70;71.68
21109;BME280;10712;52.944;9.098;2023-12-28T05:03:04;100659.69;;;16.71;71.21
21109;BME280;10712;52.944;9.098;2023-12-28T05:05:30;100669.59;;;16.70;71.59
21109;BME280;10712;52.944;9.098;2023-12-28T05:07:56;100667.31;;;16.66;71.72
21109;BME280;10712;52.944;9.098;2023-12-28T05:10:21;100667.03;;;16.69;71.50
21109;BME280;10712;52.944;9.098;2023-12-28T05:12:48;100658.00;;;16.70;71.42
21109;BME280;10712;52.944;9.098;2023-12-28T05:15:14;100661.41;;;16.72;71.47
21109;BME280;10712;52.944;9.098;2023-12-28T05:17:41;100661.13;;;16.75;71.51
21109;BME280;10712;52.944;9.098;2023-12-28T05:20:07;100667.00;;;16.80;71.32
21109;BME280;10712;52.944;9.098;2023-12-28T05:22:33;100650.84;;;16.80;71.16
21109;BME280;10712;52.944;9.098;2023-12-28T05:24:59;100666.19;;;16.68;71.46
21109;BME280;10712;52.944;9.098;2023-12-28T05:27:25;100667.25;;;16.77;71.49
21109;BME280;10712;52.944;9.098;2023-12-28T05:29:50;100669.69;;;16.80;71.47
21109;BME280;10712;52.944;9.098;2023-12-28T05:32:16;100661.28;;;16.94;71.07
21109;BME280;10712;52.944;9.098;2023-12-28T05:34:42;100652.34;;;16.93;71.21
21109;BME280;10712;52.944;9.098;2023-12-28T05:37:08;100657.59;;;16.95;71.17
21109;BME280;10712;52.944;9.098;2023-12-28T05:39:34;100642.06;;;17.08;70.84
21109;BME280;10712;52.944;9.098;2023-12-28T05:41:59;100620.69;;;17.07;70.70
21109;BME280;10712;52.944;9.098;2023-12-28T05:44:25;100626.03;;;16.97;70.98
21109;BME280;10712;52.944;9.098;2023-12-28T05:46:51;100643.94;;;17.08;70.74
21109;BME280;10712;52.944;9.098;2023-12-28T05:49:17;100644.13;;;16.95;70.91
21109;BME280;10712;52.944;9.098;2023-12-28T05:51:43;100646.38;;;16.90;71.06
21109;BME280;10712;52.944;9.098;2023-12-28T05:54:09;100656.69;;;16.85;71.19
21109;BME280;10712;52.944;9.098;2023-12-28T05:56:35;100658.72;;;16.92;71.03
21109;BME280;10712;52.944;9.098;2023-12-28T05:59:01;100662.19;;;17.04;70.71
21109;BME280;10712;52.944;9.098;2023-12-28T06:01:27;100661.53;;;16.91;70.94
21109;BME280;10712;52.944;9.098;2023-12-28T06:03:53;100663.50;;;16.89;70.93
21109;BME280;10712;52.944;9.098;2023-12-28T06:06:20;100666.84;;;16.81;70.89
21109;BME280;10712;52.944;9.098;2023-12-28T06:08:48;100658.13;;;16.89;70.93
21109;BME280;10712;52.944;9.098;2023-12-28T06:11:14;100668.94;;;16.99;70.83
21109;BME280;10712;52.944;9.098;2023-12-28T06:13:41;100670.88;;;16.87;71.16
21109;BME280;10712;52.944;9.098;2023-12-28T06:16:07;100667.44;;;16.85;71.01
21109;BME280;10712;52.944;9.098;2023-12-28T06:18:32;100675.13;;;16.89;70.84
21109;BME280;10712;52.944;9.098;2023-12-28T06:20:58;100660.34;;;16.84;70.93
21109;BME280;10712;52.944;9.098;2023-12-28T06:23:24;100658.72;;;16.92;70.76
21109;BME280;10712;52.944;9.098;2023-12-28T06:25:50;100655.81;;;17.05;70.45
21109;BME280;10712;52.944;9.098;2023-12-28T06:28:16;100655.69;;;17.07;70.33
21109;BME280;10712;52.944;9.098;2023-12-28T06:30:41;100662.19;;;17.04;70.55
21109;BME280;10712;52.944;9.098;2023-12-28T06:33:07;100654.19;;;16.93;70.79
21109;BME280;10712;52.944;9.098;2023-12-28T06:35:33;100671.78;;;16.97;70.52
21109;BME280;10712;52.944;9.098;2023-12-28T06:37:59;100672.06;;;16.94;70.63
21109;BME280;10712;52.944;9.098;2023-12-28T06:40:24;100680.38;;;16.91;70.86
21109;BME280;10712;52.944;9.098;2023-12-28T06:42:50;100675.84;;;17.12;70.42
21109;BME280;10712;52.944;9.098;2023-12-28T06:45:16;100681.78;;;17.16;70.33
21109;BME280;10712;52.944;9.098;2023-12-28T06:47:42;100688.88;;;17.17;70.33
21109;BME280;10712;52.944;9.098;2023-12-28T06:50:08;100695.13;;;17.17;70.26
21109;BME280;10712;52.944;9.098;2023-12-28T06:52:34;100696.38;;;17.13;70.47
21109;BME280;10712;52.944;9.098;2023-12-28T06:54:59;100695.41;;;17.14;70.57
21109;BME280;10712;52.944;9.098;2023-12-28T06:57:25;100696.59;;;17.21;70.35
21109;BME280;10712;52.944;9.098;2023-12-28T06:59:51;100692.38;;;17.28;70.29
21109;BME280;10712;52.944;9.098;2023-12-28T07:02:17;100686.44;;;17.35;70.04
21109;BME280;10712;52.944;9.098;2023-12-28T07:04:43;100690.38;;;17.30;70.12
21109;BME280;10712;52.944;9.098;2023-12-28T07:07:08;100682.41;;;17.29;70.19
21109;BME280;10712;52.944;9.098;2023-12-28T07:09:35;100696.69;;;17.41;69.98
21109;BME280;10712;52.944;9.098;2023-12-28T07:12:01;100687.47;;;17.43;69.70
21109;BME280;10712;52.944;9.098;2023-12-28T07:14:27;100686.34;;;17.46;69.63
21109;BME280;10712;52.944;9.098;2023-12-28T07:16:53;100672.34;;;17.52;69.41
21109;BME280;10712;52.944;9.098;2023-12-28T07:19:19;100689.22;;;17.54;69.45
21109;BME280;10712;52.944;9.098;2023-12-28T07:21:45;100679.44;;;17.53;69.49
21109;BME280;10712;52.944;9.098;2023-12-28T07:24:10;100679.44;;;17.53;69.40
21109;BME280;10712;52.944;9.098;2023-12-28T07:26:36;100681.69;;;17.48;69.73
21109;BME280;10712;52.944;9.098;2023-12-28T07:29:02;100683.66;;;17.46;69.78
21109;BME280;10712;52.944;9.098;2023-12-28T07:31:28;100690.75;;;17.47;69.81
21109;BME280;10712;52.944;9.098;2023-12-28T07:33:54;100699.59;;;17.58;69.52
21109;BME280;10712;52.944;9.098;2023-12-28T07:36:20;100693.56;;;17.66;69.12
21109;BME280;10712;52.944;9.098;2023-12-28T07:38:46;100699.13;;;17.74;68.95
21109;BME280;10712;52.944;9.098;2023-12-28T07:41:12;100699.94;;;17.65;69.09
21109;BME280;10712;52.944;9.098;2023-12-28T07:43:38;100696.56;;;17.73;68.92
21109;BME280;10712;52.944;9.098;2023-12-28T07:46:04;100706.22;;;17.75;68.76
21109;BME280;10712;52.944;9.098;2023-12-28T07:48:30;100704.50;;;17.74;68.86
21109;BME280;10712;52.944;9.098;2023-12-28T07:51:04;100688.66;;;17.81;68.93
21109;BME280;10712;52.944;9.098;2023-12-28T07:53:31;100707.38;;;17.82;68.56
21109;BME280;10712;52.944;9.098;2023-12-28T07:55:56;100692.63;;;17.86;68.35
21109;BME280;10712;52.944;9.098;2023-12-28T07:58:22;100683.38;;;17.79;68.50
21109;BME280;10712;52.944;9.098;2023-12-28T08:00:48;100687.78;;;17.80;68.70
21109;BME280;10712;52.944;9.098;2023-12-28T08:03:14;100692.91;;;17.83;68.64
21109;BME280;10712;52.944;9.098;2023-12-28T08:05:43;100691.22;;;17.82;68.52
21109;BME280;10712;52.944;9.098;2023-12-28T08:08:09;100696.31;;;17.85;68.65
21109;BME280;10712;52.944;9.098;2023-12-28T08:10:34;100707.81;;;17.87;68.54
21109;BME280;10712;52.944;9.098;2023-12-28T08:13:00;100700.31;;;17.91;68.31
21109;BME280;10712;52.944;9.098;2023-12-28T08:15:26;100698.88;;;17.87;68.55
21109;BME280;10712;52.944;9.098;2023-12-28T08:17:52;100700.00;;;17.84;68.48
21109;BME280;10712;52.944;9.098;2023-12-28T08:20:17;100706.22;;;17.85;68.36
21109;BME280;10712;52.944;9.098;2023-12-28T08:22:43;100705.13;;;17.87;68.23
21109;BME280;10712;52.944;9.098;2023-12-28T08:25:09;100709.66;;;17.87;68.66
21109;BME280;10712;52.944;9.098;2023-12-28T08:27:36;100708.81;;;17.86;68.21
21109;BME280;10712;52.944;9.098;2023-12-28T08:30:02;100709.69;;;17.96;67.87
21109;BME280;10712;52.944;9.098;2023-12-28T08:32:28;100701.31;;;17.99;68.00
21109;BME280;10712;52.944;9.098;2023-12-28T08:34:53;100703.03;;;18.00;67.56
21109;BME280;10712;52.944;9.098;2023-12-28T08:37:19;100689.53;;;17.91;67.94
21109;BME280;10712;52.944;9.098;2023-12-28T08:39:45;100703.16;;;17.89;68.04
21109;BME280;10712;52.944;9.098;2023-12-28T08:42:11;100711.41;;;18.07;67.49
21109;BME280;10712;52.944;9.098;2023-12-28T08:44:37;100711.41;;;18.07;67.47
21109;BME280;10712;52.944;9.098;2023-12-28T08:47:03;100700.75;;;18.05;67.27
21109;BME280;10712;52.944;9.098;2023-12-28T08:49:29;100710.28;;;18.09;67.06
21109;BME280;10712;52.944;9.098;2023-12-28T08:51:55;100710.84;;;18.03;66.94
21109;BME280;10712;52.944;9.098;2023-12-28T08:54:20;100712.41;;;18.06;67.20
21109;BME280;10712;52.944;9.098;2023-12-28T08:56:46;100703.91;;;18.10;66.96
21109;BME280;10712;52.944;9.098;2023-12-28T08:59:14;100715.41;;;18.13;66.53
21109;BME280;10712;52.944;9.098;2023-12-28T09:01:39;100720.22;;;18.19;66.49
21109;BME280;10712;52.944;9.098;2023-12-28T09:04:05;100714.97;;;18.07;66.54
21109;BME280;10712;52.944;9.098;2023-12-28T09:06:31;100721.69;;;18.23;66.41
21109;BME280;10712;52.944;9.098;2023-12-28T09:08:57;100727.50;;;18.28;66.38
21109;BME280;10712;52.944;9.098;2023-12-28T09:11:23;100720.38;;;18.27;66.00
21109;BME280;10712;52.944;9.098;2023-12-28T09:13:50;100722.66;;;18.22;66.57
21109;BME280;10712;52.944;9.098;2023-12-28T09:16:16;100724.22;;;18.15;66.63
21109;BME280;10712;52.944;9.098;2023-12-28T09:18:43;100731.78;;;18.30;66.24
21109;BME280;10712;52.944;9.098;2023-12-28T09:21:09;100744.41;;;18.30;66.10
21109;BME280;10712;52.944;9.098;2023-12-28T09:23:36;100735.63;;;18.37;65.66
21109;BME280;10712;52.944;9.098;2023-12-28T09:26:05;100738.19;;;18.39;65.42
21109;BME280;10712;52.944;9.098;2023-12-28T09:28:32;100742.56;;;18.40;65.54
21109;BME280;10712;52.944;9.098;2023-12-28T09:31:00;100732.72;;;18.20;66.30
21109;BME280;10712;52.944;9.098;2023-12-28T09:33:26;100741.56;;;18.41;65.50
21109;BME280;10712;52.944;9.098;2023-12-28T09:35:51;100739.34;;;18.46;65.76
21109;BME280;10712;52.944;9.098;2023-12-28T09:38:19;100730.09;;;18.48;65.78
21109;BME280;10712;52.944;9.098;2023-12-28T09:40:45;100733.38;;;18.52;65.50
21109;BME280;10712;52.944;9.098;2023-12-28T09:43:26;100733.94;;;18.46;65.60
21109;BME280;10712;52.944;9.098;2023-12-28T09:45:53;100722.56;;;18.42;65.78
21109;BME280;10712;52.944;9.098;2023-12-28T09:48:21;100723.41;;;18.43;65.74
21109;BME280;10712;52.944;9.098;2023-12-28T09:50:53;100717.75;;;18.46;65.94
21109;BME280;10712;52.944;9.098;2023-12-28T09:53:26;100718.56;;;18.46;66.22
21109;BME280;10712;52.944;9.098;2023-12-28T09:55:53;100716.19;;;18.53;65.90
21109;BME280;10712;52.944;9.098;2023-12-28T09:58:20;100702.97;;;18.50;65.84
21109;BME280;10712;52.944;9.098;2023-12-28T10:00:49;100723.16;;;18.56;65.71
21109;BME280;10712;52.944;9.098;2023-12-28T10:03:16;100724.31;;;18.72;65.80
21109;BME280;10712;52.944;9.098;2023-12-28T10:05:44;100722.31;;;18.74;65.52
21109;BME280;10712;52.944;9.098;2023-12-28T10:08:16;100730.00;;;18.69;65.91
21109;BME280;10712;52.944;9.098;2023-12-28T10:10:44;100722.59;;;18.71;66.04
21109;BME280;10712;52.944;9.098;2023-12-28T10:13:17;100720.63;;;18.73;65.86
21109;BME280;10712;52.944;9.098;2023-12-28T10:15:43;100715.63;;;18.88;65.60
21109;BME280;10712;52.944;9.098;2023-12-28T10:18:09;100714.34;;;18.82;65.54
21109;BME280;10712;52.944;9.098;2023-12-28T10:20:35;100710.41;;;18.86;65.58
21109;BME280;10712;52.944;9.098;2023-12-28T10:23:01;100710.97;;;18.80;65.44
21109;BME280;10712;52.944;9.098;2023-12-28T10:25:28;100712.94;;;18.98;65.07
21109;BME280;10712;52.944;9.098;2023-12-28T10:27:54;100722.59;;;19.00;64.84
21109;BME280;10712;52.944;9.098;2023-12-28T10:30:21;100730.84;;;18.99;64.80
21109;BME280;10712;52.944;9.098;2023-12-28T10:32:47;100718.91;;;18.92;65.39
21109;BME280;10712;52.944;9.098;2023-12-28T10:35:13;100725.72;;;18.76;65.21
21109;BME280;10712;52.944;9.098;2023-12-28T10:37:40;100724.31;;;18.92;65.21
21109;BME280;10712;52.944;9.098;2023-12-28T10:40:14;100739.78;;;18.89;64.80
21109;BME280;10712;52.944;9.098;2023-12-28T10:42:50;100741.78;;;19.07;64.65
21109;BME280;10712;52.944;9.098;2023-12-28T10:45:19;100728.00;;;19.00;65.00
21109;BME280;10712;52.944;9.098;2023-12-28T10:48:10;100740.50;;;18.92;65.08
21109;BME280;10712;52.944;9.098;2023-12-28T10:50:42;100741.34;;;19.02;64.82
21109;BME280;10712;52.944;9.098;2023-12-28T10:56:27;100737.94;;;19.00;64.48
21109;BME280;10712;52.944;9.098;2023-12-28T10:59:35;100737.94;;;19.00;64.68
21109;BME280;10712;52.944;9.098;2023-12-28T11:02:06;100742.34;;;19.01;64.79
21109;BME280;10712;52.944;9.098;2023-12-28T11:04:44;100737.38;;;18.96;64.75
21109;BME280;10712;52.944;9.098;2023-12-28T11:07:13;100720.75;;;18.91;65.28
21109;BME280;10712;52.944;9.098;2023-12-28T11:09:42;100717.19;;;19.00;65.11
21109;BME280;10712;52.944;9.098;2023-12-28T11:12:08;100724.28;;;19.11;64.63
21109;BME280;10712;52.944;9.098;2023-12-28T11:14:39;100705.25;;;19.03;64.51
21109;BME280;10712;52.944;9.098;2023-12-28T11:17:05;100718.03;;;19.10;64.62
21109;BME280;10712;52.944;9.098;2023-12-28T11:19:33;100716.88;;;19.13;65.11
21109;BME280;10712;52.944;9.098;2023-12-28T11:22:02;100727.97;;;19.10;64.54
21109;BME280;10712;52.944;9.098;2023-12-28T11:24:29;100722.41;;;19.21;64.44
21109;BME280;10712;52.944;9.098;2023-12-28T11:26:57;100710.91;;;19.19;64.18
21109;BME280;10712;52.944;9.098;2023-12-28T11:29:24;100723.41;;;19.20;64.32
21109;BME280;10712;52.944;9.098;2023-12-28T11:31:58;100701.22;;;19.16;64.26
21109;BME280;10712;52.944;9.098;2023-12-28T11:34:33;100708.34;;;19.27;64.09
21109;BME280;10712;52.944;9.098;2023-12-28T11:37:07;100710.31;;;19.25;63.76
21109;BME280;10712;52.944;9.098;2023-12-28T11:39:37;100708.63;;;19.24;63.90
21109;BME280;10712;52.944;9.098;2023-12-28T11:42:08;100703.47;;;19.31;64.28
21109;BME280;10712;52.944;9.098;2023-12-28T11:44:43;100705.03;;;19.33;64.00
21109;BME280;10712;52.944;9.098;2023-12-28T11:47:13;100709.03;;;19.29;63.72
21109;BME280;10712;52.944;9.098;2023-12-28T11:49:41;100709.03;;;19.29;63.69
21109;BME280;10712;52.944;9.098;2023-12-28T11:52:08;100706.34;;;19.29;63.65
21109;BME280;10712;52.944;9.098;2023-12-28T11:54:35;100705.22;;;19.22;63.62
21109;BME280;10712;52.944;9.098;2023-12-28T11:57:00;100700.22;;;19.27;63.63
21109;BME280;10712;52.944;9.098;2023-12-28T11:59:27;100711.44;;;19.32;63.57
21109;BME280;10712;52.944;9.098;2023-12-28T12:01:53;100710.13;;;19.36;63.41
21109;BME280;10712;52.944;9.098;2023-12-28T12:04:20;100703.78;;;19.27;63.55
21109;BME280;10712;52.944;9.098;2023-12-28T12:06:47;100707.63;;;19.25;63.60
21109;BME280;10712;52.944;9.098;2023-12-28T12:09:14;100699.22;;;19.28;63.50
21109;BME280;10712;52.944;9.098;2023-12-28T12:11:40;100697.22;;;19.30;63.78
21109;BME280;10712;52.944;9.098;2023-12-28T12:14:11;100696.41;;;19.20;64.15
21109;BME280;10712;52.944;9.098;2023-12-28T12:16:37;100698.53;;;19.16;64.18
21109;BME280;10712;52.944;9.098;2023-12-28T12:19:07;100702.63;;;19.30;64.08
21109;BME280;10712;52.944;9.098;2023-12-28T12:21:34;100699.81;;;19.22;64.31
21109;BME280;10712;52.944;9.098;2023-12-28T12:24:00;100706.50;;;19.27;64.47
21109;BME280;10712;52.944;9.098;2023-12-28T12:26:30;100713.16;;;19.33;63.68
21109;BME280;10712;52.944;9.098;2023-12-28T12:29:02;100717.44;;;19.26;63.86
21109;BME280;10712;52.944;9.098;2023-12-28T12:31:28;100704.06;;;19.24;64.23
21109;BME280;10712;52.944;9.098;2023-12-28T12:33:55;100682.03;;;19.19;64.13
21109;BME280;10712;52.944;9.098;2023-12-28T12:36:21;100685.00;;;19.26;64.39
21109;BME280;10712;52.944;9.098;2023-12-28T12:38:48;100693.97;;;19.17;64.65
21109;BME280;10712;52.944;9.098;2023-12-28T12:41:14;100699.69;;;19.14;64.67
21109;BME280;10712;52.944;9.098;2023-12-28T12:43:40;100694.69;;;19.19;64.62
21109;BME280;10712;52.944;9.098;2023-12-28T12:46:09;100685.00;;;19.26;64.15
21109;BME280;10712;52.944;9.098;2023-12-28T12:48:34;100691.00;;;19.20;64.19
21109;BME280;10712;52.944;9.098;2023-12-28T12:51:04;100689.03;;;19.22;63.76
21109;BME280;10712;52.944;9.098;2023-12-28T12:53:36;100698.66;;;19.34;64.05